Time;durP1;ratioP1;P1;durP2;ratioP2;P2;SDS_P1;SDS_P2;PMS_P1;PMS_P2;Temp;Humidity;BMP_temperature;BMP_pressure;BME280_temperature;BME280_humidity;BME280_pressure;Samples;Min_cycle;Max_cycle;Signal;HPM_P1;HPM_P2
2021/09/22 00:00:15;;;;;;;8.55;4.93;;;;;;;;;;6239886;28;20400;-84
2021/09/22 00:03:17;;;;;;;8.25;4.72;;;;;;;;;;6277626;28;20521;-84
2021/09/22 00:06:19;;;;;;;6.85;5.25;;;;;;;;;;6224333;28;20616;-83
2021/09/22 00:09:20;;;;;;;7.13;4.65;;;;;;;;;;6265989;28;20051;-83
2021/09/22 00:12:22;;;;;;;7.38;4.80;;;;;;;;;;6238315;28;20781;-84
2021/09/22 00:15:25;;;;;;;8.02;5.00;;;;;;;;;;6237381;28;20042;-83
2021/09/22 00:18:27;;;;;;;8.45;5.15;;;;;;;;;;6240774;28;20045;-83
2021/09/22 00:21:28;;;;;;;8.10;4.30;;;;;;;;;;6238672;28;20034;-83
2021/09/22 00:24:30;;;;;;;6.95;4.47;;;;;;;;;;6237857;28;20128;-84
2021/09/22 00:27:32;;;;;;;7.28;4.57;;;;;;;;;;6272304;28;20041;-83
2021/09/22 00:30:34;;;;;;;8.07;3.95;;;;;;;;;;6236795;28;20041;-84
2021/09/22 00:33:38;;;;;;;7.65;4.20;;;;;;;;;;6219401;28;20041;-83
2021/09/22 00:36:39;;;;;;;8.23;4.13;;;;;;;;;;6224290;28;20041;-83
2021/09/22 00:39:41;;;;;;;7.82;4.43;;;;;;;;;;6236755;28;20154;-83
2021/09/22 00:42:43;;;;;;;7.95;4.78;;;;;;;;;;6228901;28;20038;-83
2021/09/22 00:45:44;;;;;;;7.93;5.22;;;;;;;;;;6240315;28;20050;-83
2021/09/22 00:48:46;;;;;;;9.95;5.32;;;;;;;;;;6222256;28;20037;-83
2021/09/22 00:51:48;;;;;;;8.60;4.50;;;;;;;;;;6239172;28;20102;-83
2021/09/22 00:54:50;;;;;;;7.55;4.35;;;;;;;;;;6238045;28;20692;-85
2021/09/22 00:57:54;;;;;;;7.57;4.60;;;;;;;;;;6237754;28;20523;-84
2021/09/22 01:00:57;;;;;;;9.65;4.45;;;;;;;;;;6236227;28;20517;-85
2021/09/22 01:04:00;;;;;;;8.45;4.45;;;;;;;;;;6254373;28;20045;-84
2021/09/22 01:07:04;;;;;;;8.60;4.65;;;;;;;;;;6220982;28;20517;-83
2021/09/22 01:10:06;;;;;;;8.32;4.75;;;;;;;;;;6222081;28;20060;-83
2021/09/22 01:13:07;;;;;;;11.25;5.18;;;;;;;;;;6234767;28;20037;-83
2021/09/22 01:16:09;;;;;;;9.38;4.60;;;;;;;;;;6223127;28;20128;-84
2021/09/22 01:19:12;;;;;;;7.80;4.97;;;;;;;;;;6238514;28;20123;-83
2021/09/22 01:22:17;;;;;;;8.07;4.97;;;;;;;;;;6206232;28;20175;-84
2021/09/22 01:25:37;;;;;;;8.77;4.97;;;;;;;;;;6213385;28;20045;-83
2021/09/22 01:28:46;;;;;;;11.20;5.03;;;;;;;;;;6251493;28;20103;-83
2021/09/22 01:31:50;;;;;;;7.50;4.40;;;;;;;;;;6237742;28;20398;-83
2021/09/22 01:34:52;;;;;;;10.57;5.28;;;;;;;;;;6220988;28;20053;-83
2021/09/22 01:38:11;;;;;;;11.38;5.53;;;;;;;;;;6222755;28;20045;-84
2021/09/22 01:41:20;;;;;;;9.43;5.50;;;;;;;;;;6211703;28;20049;-83
2021/09/22 01:44:37;;;;;;;9.05;5.10;;;;;;;;;;6214450;28;20049;-85
2021/09/22 01:47:59;;;;;;;8.57;4.73;;;;;;;;;;6245514;28;20064;-85
2021/09/22 01:51:03;;;;;;;9.18;5.53;;;;;;;;;;6264017;28;20044;-84
2021/09/22 01:54:07;;;;;;;10.73;5.00;;;;;;;;;;6246421;28;20053;-85
2021/09/22 01:57:15;;;;;;;9.43;5.63;;;;;;;;;;6247331;28;20042;-85
2021/09/22 02:00:18;;;;;;;9.65;4.93;;;;;;;;;;6222147;28;20422;-85
2021/09/22 02:03:23;;;;;;;7.95;4.45;;;;;;;;;;6232488;28;20052;-83
2021/09/22 02:06:33;;;;;;;7.32;4.72;;;;;;;;;;6229713;28;20045;-83
2021/09/22 02:09:35;;;;;;;7.85;4.70;;;;;;;;;;6207954;28;20101;-84
2021/09/22 02:12:39;;;;;;;9.68;4.40;;;;;;;;;;6230553;28;20042;-84
2021/09/22 02:15:42;;;;;;;8.23;4.20;;;;;;;;;;6218073;28;20045;-83
2021/09/22 02:19:13;;;;;;;6.38;3.80;;;;;;;;;;6202924;28;20041;-85
2021/09/22 02:22:23;;;;;;;6.63;3.90;;;;;;;;;;6237514;28;20124;-83
2021/09/22 02:25:36;;;;;;;7.10;4.50;;;;;;;;;;6240902;28;20056;-84
2021/09/22 02:28:38;;;;;;;5.57;3.70;;;;;;;;;;6240103;28;20045;-84
2021/09/22 02:31:39;;;;;;;6.63;3.90;;;;;;;;;;6237906;28;20044;-84
2021/09/22 02:34:41;;;;;;;7.75;4.00;;;;;;;;;;6235565;28;20049;-83
2021/09/22 02:37:43;;;;;;;6.95;3.90;;;;;;;;;;6254296;28;20044;-83
2021/09/22 02:41:07;;;;;;;6.72;3.75;;;;;;;;;;6238593;28;20045;-83
2021/09/22 02:44:09;;;;;;;5.93;3.50;;;;;;;;;;6265457;28;20042;-83
2021/09/22 02:47:20;;;;;;;7.72;3.92;;;;;;;;;;6237209;28;20092;-84
2021/09/22 02:50:23;;;;;;;7.43;4.10;;;;;;;;;;6256173;28;20045;-84
2021/09/22 02:53:26;;;;;;;6.88;4.30;;;;;;;;;;6238131;28;20103;-82
2021/09/22 02:56:27;;;;;;;9.75;4.05;;;;;;;;;;6235292;28;20048;-83
2021/09/22 02:59:30;;;;;;;8.20;4.50;;;;;;;;;;6233752;28;20050;-82
2021/09/22 03:02:33;;;;;;;6.63;3.70;;;;;;;;;;6231402;28;20534;-82
2021/09/22 03:05:37;;;;;;;9.07;4.15;;;;;;;;;;6214726;28;20065;-82
2021/09/22 03:08:38;;;;;;;7.10;4.50;;;;;;;;;;6232293;28;20038;-83
2021/09/22 03:11:40;;;;;;;6.38;4.40;;;;;;;;;;6236257;28;20041;-82
2021/09/22 03:14:42;;;;;;;7.68;4.53;;;;;;;;;;6208208;28;20387;-83
2021/09/22 03:17:45;;;;;;;7.35;4.43;;;;;;;;;;6213698;28;20045;-83
2021/09/22 03:20:47;;;;;;;7.40;4.15;;;;;;;;;;6235381;28;20057;-83
2021/09/22 03:23:49;;;;;;;6.77;4.10;;;;;;;;;;6235596;28;20041;-83
2021/09/22 03:26:50;;;;;;;7.32;4.38;;;;;;;;;;6234140;28;20257;-82
2021/09/22 03:29:53;;;;;;;7.38;4.03;;;;;;;;;;6236962;28;20037;-84
2021/09/22 03:32:54;;;;;;;8.38;4.35;;;;;;;;;;6234013;28;20048;-82
2021/09/22 03:35:56;;;;;;;7.07;4.10;;;;;;;;;;6234358;28;20076;-83
2021/09/22 03:38:58;;;;;;;9.00;4.03;;;;;;;;;;6219721;28;20119;-82
2021/09/22 03:42:00;;;;;;;5.97;3.70;;;;;;;;;;6233569;28;20077;-84
2021/09/22 03:45:01;;;;;;;7.75;3.97;;;;;;;;;;6235828;28;20513;-82
2021/09/22 03:48:06;;;;;;;5.70;3.55;;;;;;;;;;6232695;28;20049;-84
2021/09/22 03:51:08;;;;;;;5.80;4.03;;;;;;;;;;6211895;28;20054;-84
2021/09/22 03:54:12;;;;;;;7.65;3.50;;;;;;;;;;6219510;28;20049;-83
2021/09/22 03:57:15;;;;;;;6.43;3.72;;;;;;;;;;6234196;28;20037;-83
2021/09/22 04:00:17;;;;;;;8.38;4.57;;;;;;;;;;6221188;28;20042;-83
2021/09/22 04:03:18;;;;;;;7.13;3.95;;;;;;;;;;6228243;28;20053;-83
2021/09/22 04:06:21;;;;;;;7.65;4.03;;;;;;;;;;6264067;28;20041;-82
2021/09/22 04:09:23;;;;;;;6.88;3.90;;;;;;;;;;6235795;28;20049;-84
2021/09/22 04:12:25;;;;;;;7.43;4.43;;;;;;;;;;6200133;28;20052;-83
2021/09/22 04:15:26;;;;;;;8.82;4.25;;;;;;;;;;6239330;28;20048;-82
2021/09/22 04:18:28;;;;;;;7.75;3.70;;;;;;;;;;6240215;28;20048;-84
2021/09/22 04:21:30;;;;;;;7.50;4.22;;;;;;;;;;6226611;28;20044;-84
2021/09/22 04:24:32;;;;;;;6.90;4.45;;;;;;;;;;6239752;28;20065;-82
2021/09/22 04:27:34;;;;;;;6.65;3.63;;;;;;;;;;6275124;28;20044;-84
2021/09/22 04:30:44;;;;;;;6.13;3.75;;;;;;;;;;6240727;28;20050;-83
2021/09/22 04:34:04;;;;;;;7.22;4.50;;;;;;;;;;6241727;28;20042;-83
2021/09/22 04:37:28;;;;;;;6.78;4.13;;;;;;;;;;6242242;28;20037;-82
2021/09/22 04:40:48;;;;;;;7.35;4.57;;;;;;;;;;6241092;28;20062;-84
2021/09/22 04:44:08;;;;;;;7.57;4.13;;;;;;;;;;6247610;28;20045;-84
2021/09/22 04:47:29;;;;;;;5.88;3.60;;;;;;;;;;6226729;28;20683;-84
2021/09/22 04:50:49;;;;;;;7.90;4.13;;;;;;;;;;6270239;28;24756;-84
2021/09/22 04:54:09;;;;;;;6.68;3.75;;;;;;;;;;6234077;28;20042;-84
2021/09/22 04:57:29;;;;;;;6.10;3.92;;;;;;;;;;6244043;28;20038;-85
2021/09/22 05:00:49;;;;;;;8.25;4.30;;;;;;;;;;6243613;28;20558;-84
2021/09/22 05:04:10;;;;;;;7.95;4.00;;;;;;;;;;6243013;28;20129;-84
2021/09/22 05:07:31;;;;;;;7.15;4.10;;;;;;;;;;6242922;28;20093;-83
2021/09/22 05:10:51;;;;;;;8.00;4.35;;;;;;;;;;6241640;28;20045;-82
2021/09/22 05:14:11;;;;;;;6.05;4.00;;;;;;;;;;6242733;28;20137;-81
2021/09/22 05:17:31;;;;;;;7.65;4.93;;;;;;;;;;6244000;28;20042;-82
2021/09/22 05:20:52;;;;;;;7.03;4.25;;;;;;;;;;6245030;28;20053;-83
2021/09/22 05:24:12;;;;;;;7.65;4.30;;;;;;;;;;6233165;28;20042;-82
2021/09/22 05:27:32;;;;;;;7.63;4.30;;;;;;;;;;6244137;28;20542;-82
2021/09/22 05:30:52;;;;;;;7.13;4.13;;;;;;;;;;6242469;28;20254;-82
2021/09/22 05:34:13;;;;;;;8.45;4.22;;;;;;;;;;6242775;28;20042;-80
2021/09/22 05:37:33;;;;;;;8.82;5.03;;;;;;;;;;6244297;28;20044;-82
2021/09/22 05:40:53;;;;;;;6.97;4.38;;;;;;;;;;6242387;28;20037;-80
2021/09/22 05:44:14;;;;;;;8.77;4.80;;;;;;;;;;6244401;28;20037;-81
2021/09/22 05:47:34;;;;;;;9.20;4.63;;;;;;;;;;6240208;28;20041;-81
2021/09/22 05:50:55;;;;;;;8.85;4.15;;;;;;;;;;6221301;28;20034;-80
2021/09/22 05:54:16;;;;;;;7.90;4.63;;;;;;;;;;6219926;28;21472;-79
2021/09/22 05:57:36;;;;;;;8.77;4.82;;;;;;;;;;6218777;28;20050;-82
2021/09/22 06:00:57;;;;;;;10.07;4.78;;;;;;;;;;6225573;28;20045;-80
2021/09/22 06:04:17;;;;;;;11.07;4.57;;;;;;;;;;6243745;28;20091;-81
2021/09/22 06:07:51;;;;;;;10.43;4.72;;;;;;;;;;6212119;28;20510;-81
2021/09/22 06:11:30;;;;;;;10.27;5.43;;;;;;;;;;6232752;28;20048;-82
2021/09/22 06:14:38;;;;;;;10.77;5.10;;;;;;;;;;6255284;28;20037;-80
2021/09/22 06:17:40;;;;;;;8.93;5.43;;;;;;;;;;6241501;28;20041;-80
2021/09/22 06:20:44;;;;;;;11.23;5.32;;;;;;;;;;6251156;28;20485;-82
2021/09/22 06:23:45;;;;;;;10.32;5.15;;;;;;;;;;6246045;28;20047;-79
2021/09/22 06:26:47;;;;;;;9.10;4.93;;;;;;;;;;6241761;28;20047;-80
2021/09/22 06:29:49;;;;;;;11.55;5.65;;;;;;;;;;6240054;28;20049;-80
2021/09/22 06:32:50;;;;;;;8.43;5.20;;;;;;;;;;6237474;28;20037;-81
2021/09/22 06:36:12;;;;;;;11.90;5.00;;;;;;;;;;6239473;28;20056;-82
2021/09/22 06:39:16;;;;;;;10.63;5.18;;;;;;;;;;6239849;28;20055;-81
2021/09/22 06:42:20;;;;;;;11.40;6.10;;;;;;;;;;6238797;28;20065;-80
2021/09/22 06:45:22;;;;;;;10.60;5.90;;;;;;;;;;6271008;28;20793;-80
2021/09/22 06:48:27;;;;;;;12.77;6.80;;;;;;;;;;6241339;28;20495;-80
2021/09/22 06:51:28;;;;;;;13.35;7.38;;;;;;;;;;6239665;28;20048;-81
2021/09/22 06:54:30;;;;;;;10.52;5.90;;;;;;;;;;6238562;28;20049;-80
2021/09/22 06:57:33;;;;;;;10.65;4.75;;;;;;;;;;6241173;28;20129;-79
2021/09/22 07:00:35;;;;;;;;;;;;;;;;;;6241717;28;20045;-79
2021/09/22 07:03:37;;;;;;;13.23;5.43;;;;;;;;;;6238619;28;19921;-79
2021/09/22 07:06:39;;;;;;;8.35;5.05;;;;;;;;;;6239787;28;20470;-81
2021/09/22 07:09:41;;;;;;;9.80;4.88;;;;;;;;;;6238107;28;20041;-80
2021/09/22 07:12:43;;;;;;;7.55;4.45;;;;;;;;;;6239987;28;20034;-81
2021/09/22 07:15:44;;;;;;;7.75;4.28;;;;;;;;;;6238491;28;20049;-80
2021/09/22 07:18:48;;;;;;;10.20;4.68;;;;;;;;;;6243726;28;20044;-80
2021/09/22 07:21:50;;;;;;;6.15;3.63;;;;;;;;;;6243538;28;20045;-81
2021/09/22 07:24:51;;;;;;;7.70;4.90;;;;;;;;;;6240924;28;20111;-80
2021/09/22 07:27:53;;;;;;;8.25;4.82;;;;;;;;;;6234199;28;20277;-80
2021/09/22 07:30:55;;;;;;;8.75;4.70;;;;;;;;;;6232156;28;20042;-80
2021/09/22 07:33:56;;;;;;;8.95;4.85;;;;;;;;;;6237682;28;20052;-81
2021/09/22 07:36:58;;;;;;;9.55;5.13;;;;;;;;;;6247642;28;20045;-81
2021/09/22 07:40:00;;;;;;;8.05;4.93;;;;;;;;;;6221901;28;20042;-82
2021/09/22 07:43:02;;;;;;;10.57;4.97;;;;;;;;;;6238161;28;20679;-82
2021/09/22 07:46:04;;;;;;;10.32;4.72;;;;;;;;;;6232940;28;20041;-82
2021/09/22 07:49:05;;;;;;;7.45;4.82;;;;;;;;;;6246511;28;20513;-81
2021/09/22 07:52:07;;;;;;;8.02;4.22;;;;;;;;;;6248097;28;20073;-81
2021/09/22 07:55:10;;;;;;;9.40;4.45;;;;;;;;;;6240960;28;20042;-83
2021/09/22 07:58:12;;;;;;;7.55;4.43;;;;;;;;;;6247224;28;20047;-82
2021/09/22 08:01:14;;;;;;;8.48;4.50;;;;;;;;;;6238612;28;20053;-82
2021/09/22 08:04:16;;;;;;;9.50;4.22;;;;;;;;;;6231725;28;20125;-81
2021/09/22 08:07:18;;;;;;;8.23;4.30;;;;;;;;;;6236851;28;20049;-81
2021/09/22 08:10:20;;;;;;;9.73;4.40;;;;;;;;;;6233584;28;20046;-82
2021/09/22 08:13:22;;;;;;;7.67;3.93;;;;;;;;;;6240169;28;20510;-82
2021/09/22 08:16:24;;;;;;;8.95;4.13;;;;;;;;;;6236469;28;20041;-80
2021/09/22 08:19:27;;;;;;;6.10;3.80;;;;;;;;;;6246605;28;20053;-81
2021/09/22 08:22:29;;;;;;;8.02;4.05;;;;;;;;;;6244527;28;20052;-80
2021/09/22 08:25:31;;;;;;;7.25;4.03;;;;;;;;;;6244045;28;20582;-81
2021/09/22 08:28:32;;;;;;;5.70;4.50;;;;;;;;;;6242909;28;20049;-82
2021/09/22 08:31:36;;;;;;;8.75;4.35;;;;;;;;;;6232097;28;20124;-81
2021/09/22 08:34:40;;;;;;;8.57;4.90;;;;;;;;;;6194930;28;20045;-81
2021/09/22 08:37:42;;;;;;;11.98;6.07;;;;;;;;;;6245783;28;20041;-80
2021/09/22 08:40:44;;;;;;;8.25;4.70;;;;;;;;;;6230625;28;20053;-82
2021/09/22 08:43:46;;;;;;;10.63;5.20;;;;;;;;;;6229651;28;20045;-81
2021/09/22 08:46:47;;;;;;;6.15;4.63;;;;;;;;;;6241161;28;20043;-81
2021/09/22 08:49:52;;;;;;;11.05;5.55;;;;;;;;;;6247148;28;20040;-83
2021/09/22 08:52:54;;;;;;;7.22;4.10;;;;;;;;;;6246781;28;20156;-82
2021/09/22 08:55:56;;;;;;;8.13;3.90;;;;;;;;;;6247052;28;20037;-83
2021/09/22 08:58:57;;;;;;;9.00;4.53;;;;;;;;;;6246980;28;20055;-82
2021/09/22 09:02:13;;;;;;;8.95;4.43;;;;;;;;;;6246573;28;20096;-83
2021/09/22 09:05:17;;;;;;;10.45;5.53;;;;;;;;;;6245690;28;20052;-82
2021/09/22 09:08:19;;;;;;;10.20;5.63;;;;;;;;;;6248671;28;20122;-83
2021/09/22 09:11:29;;;;;;;10.50;5.85;;;;;;;;;;6246200;28;20060;-82
2021/09/22 09:14:35;;;;;;;16.42;7.60;;;;;;;;;;6245146;28;20132;-83
2021/09/22 09:17:46;;;;;;;12.75;8.50;;;;;;;;;;6224294;28;20065;-83
2021/09/22 09:20:54;;;;;;;15.25;9.27;;;;;;;;;;6224631;28;20121;-82
2021/09/22 09:23:58;;;;;;;15.68;8.65;;;;;;;;;;6248288;28;20149;-83
2021/09/22 09:27:00;;;;;;;17.17;8.85;;;;;;;;;;6241639;28;20057;-83
2021/09/22 09:30:23;;;;;;;20.35;8.95;;;;;;;;;;6249383;28;20083;-82
2021/09/22 09:33:45;;;;;;;19.05;7.07;;;;;;;;;;6243899;28;20045;-82
2021/09/22 09:36:47;;;;;;;14.50;7.32;;;;;;;;;;6245591;28;20029;-81
2021/09/22 09:39:49;;;;;;;14.77;8.23;;;;;;;;;;6245579;28;20038;-82
2021/09/22 09:43:01;;;;;;;17.42;8.57;;;;;;;;;;6247855;28;20121;-83
2021/09/22 09:46:03;;;;;;;17.02;8.95;;;;;;;;;;6247305;28;20045;-81
2021/09/22 09:49:14;;;;;;;15.48;8.32;;;;;;;;;;6241182;28;20103;-83
2021/09/22 09:52:16;;;;;;;16.25;8.20;;;;;;;;;;6253538;28;20525;-81
2021/09/22 09:55:19;;;;;;;14.40;8.02;;;;;;;;;;6245638;28;20056;-81
2021/09/22 09:58:21;;;;;;;;;;;;;;;;;;6242951;28;20056;-81
2021/09/22 10:01:35;;;;;;;14.90;7.15;;;;;;;;;;6242584;28;19921;-83
2021/09/22 10:04:37;;;;;;;16.80;7.82;;;;;;;;;;6232161;28;20042;-81
2021/09/22 10:07:39;;;;;;;13.93;7.83;;;;;;;;;;6227753;28;20690;-82
2021/09/22 10:10:43;;;;;;;14.90;7.88;;;;;;;;;;6234460;28;20037;-82
2021/09/22 10:13:44;;;;;;;13.95;7.60;;;;;;;;;;6241684;28;20037;-82
2021/09/22 10:16:50;;;;;;;13.20;7.25;;;;;;;;;;6234514;28;20187;-82
2021/09/22 10:19:53;;;;;;;11.27;6.70;;;;;;;;;;6239476;28;20057;-82
2021/09/22 10:22:55;;;;;;;12.77;7.30;;;;;;;;;;6241664;28;20128;-80
2021/09/22 10:25:57;;;;;;;13.13;7.13;;;;;;;;;;6239902;28;20120;-81
2021/09/22 10:29:00;;;;;;;13.33;7.07;;;;;;;;;;6240044;28;20422;-82
2021/09/22 10:32:04;;;;;;;9.23;6.10;;;;;;;;;;6234840;28;20364;-81
2021/09/22 10:35:30;;;;;;;12.40;6.50;;;;;;;;;;6254442;28;20148;-82
2021/09/22 10:38:33;;;;;;;11.05;6.10;;;;;;;;;;6238398;28;20253;-81
2021/09/22 10:41:43;;;;;;;9.63;6.30;;;;;;;;;;6243352;28;20128;-82
2021/09/22 10:44:45;;;;;;;10.27;5.80;;;;;;;;;;6241536;28;20045;-83
2021/09/22 10:47:48;;;;;;;10.23;5.75;;;;;;;;;;6219786;28;20176;-82
2021/09/22 10:50:51;;;;;;;;;;;;;;;;;;6243990;28;20038;-82
2021/09/22 10:54:08;;;;;;;8.73;5.45;;;;;;;;;;6240069;28;19999;-82
2021/09/22 10:57:13;;;;;;;11.07;5.80;;;;;;;;;;6237792;28;20045;-81
2021/09/22 11:00:18;;;;;;;10.77;6.13;;;;;;;;;;6240414;28;20657;-81
2021/09/22 11:03:46;;;;;;;9.50;5.70;;;;;;;;;;6229298;28;20042;-81
2021/09/22 11:06:56;;;;;;;9.70;5.05;;;;;;;;;;6233404;28;20474;-82
2021/09/22 11:09:58;;;;;;;9.32;5.25;;;;;;;;;;6228848;28;20048;-81
2021/09/22 11:13:18;;;;;;;9.02;5.38;;;;;;;;;;6227884;28;20106;-81
2021/09/22 11:16:20;;;;;;;7.15;4.65;;;;;;;;;;6238069;28;20050;-81
2021/09/22 11:19:22;;;;;;;5.45;4.32;;;;;;;;;;6234031;28;20694;-82
2021/09/22 11:22:27;;;;;;;9.88;4.38;;;;;;;;;;6240393;28;20557;-81
2021/09/22 11:25:31;;;;;;;6.35;4.13;;;;;;;;;;6240906;28;20499;-80
2021/09/22 11:28:33;;;;;;;9.60;4.70;;;;;;;;;;6244046;28;20128;-81
2021/09/22 11:31:36;;;;;;;10.70;5.30;;;;;;;;;;6242120;28;20566;-80
2021/09/22 11:34:39;;;;;;;6.60;3.95;;;;;;;;;;6240787;28;20048;-81
2021/09/22 11:37:50;;;;;;;7.35;4.20;;;;;;;;;;6218490;28;20057;-81
2021/09/22 11:40:51;;;;;;;6.40;4.43;;;;;;;;;;6271212;28;20124;-81
2021/09/22 11:44:04;;;;;;;7.35;4.55;;;;;;;;;;6241429;28;20123;-82
2021/09/22 11:47:10;;;;;;;;;;;;;;;;;;6240505;28;20247;-82
2021/09/22 11:50:22;;;;;;;6.68;4.13;;;;;;;;;;6242372;28;19921;-81
2021/09/22 11:53:26;;;;;;;7.93;4.13;;;;;;;;;;6241014;28;20513;-82
2021/09/22 11:56:28;;;;;;;5.22;4.00;;;;;;;;;;6239088;28;20037;-82
2021/09/22 11:59:35;;;;;;;6.07;4.10;;;;;;;;;;6242873;28;20049;-82
2021/09/22 12:02:36;;;;;;;5.32;3.47;;;;;;;;;;6242477;28;20465;-82
2021/09/22 12:05:40;;;;;;;6.55;4.53;;;;;;;;;;6245000;28;20042;-81
2021/09/22 12:08:47;;;;;;;7.05;3.70;;;;;;;;;;6242504;28;20045;-83
2021/09/22 12:12:07;;;;;;;6.22;4.10;;;;;;;;;;6247497;28;20057;-82
2021/09/22 12:15:10;;;;;;;8.25;4.10;;;;;;;;;;6243243;28;20037;-81
2021/09/22 12:18:15;;;;;;;4.32;3.35;;;;;;;;;;6241602;28;20117;-82
2021/09/22 12:21:17;;;;;;;7.80;4.00;;;;;;;;;;6244271;28;20042;-81
2021/09/22 12:24:18;;;;;;;5.97;3.60;;;;;;;;;;6243325;28;20086;-82
2021/09/22 12:27:22;;;;;;;5.20;4.40;;;;;;;;;;6245436;28;20045;-82
2021/09/22 12:30:37;;;;;;;5.30;3.70;;;;;;;;;;6243500;28;20395;-82
2021/09/22 12:33:39;;;;;;;5.35;3.58;;;;;;;;;;6244420;28;20502;-83
2021/09/22 12:36:43;;;;;;;5.53;4.05;;;;;;;;;;6246181;28;20114;-82
2021/09/22 12:40:01;;;;;;;5.45;3.80;;;;;;;;;;6252065;28;20056;-82
2021/09/22 12:43:05;;;;;;;5.88;3.20;;;;;;;;;;6239422;28;20073;-82
2021/09/22 12:46:14;;;;;;;4.38;3.03;;;;;;;;;;6235371;28;20088;-81
2021/09/22 12:49:19;;;;;;;6.43;2.50;;;;;;;;;;6228617;28;20050;-81
2021/09/22 12:52:21;;;;;;;6.85;2.78;;;;;;;;;;6240392;28;20057;-81
2021/09/22 12:55:28;;;;;;;5.55;2.92;;;;;;;;;;6234435;28;20049;-81
2021/09/22 12:58:31;;;;;;;4.65;3.28;;;;;;;;;;6244668;28;20064;-82
2021/09/22 13:01:33;;;;;;;4.95;3.17;;;;;;;;;;6242746;28;20117;-81
2021/09/22 13:04:36;;;;;;;5.20;2.72;;;;;;;;;;6243980;28;20037;-81
2021/09/22 13:07:37;;;;;;;4.88;3.42;;;;;;;;;;6245657;28;20045;-83
2021/09/22 13:11:07;;;;;;;5.72;3.35;;;;;;;;;;6245658;28;20045;-82
2021/09/22 13:14:17;;;;;;;5.55;3.83;;;;;;;;;;6245957;28;20136;-81
2021/09/22 13:17:18;;;;;;;5.38;3.20;;;;;;;;;;6244726;28;20052;-82
2021/09/22 13:20:20;;;;;;;8.93;3.90;;;;;;;;;;6247365;28;20156;-82
2021/09/22 13:23:23;;;;;;;6.30;3.40;;;;;;;;;;6245903;28;20061;-82
2021/09/22 13:26:25;;;;;;;4.88;3.42;;;;;;;;;;6248164;28;20052;-82
2021/09/22 13:29:28;;;;;;;7.88;2.92;;;;;;;;;;6248647;28;20060;-82
2021/09/22 13:32:29;;;;;;;5.47;3.00;;;;;;;;;;6245245;28;20046;-81
2021/09/22 13:35:32;;;;;;;3.00;2.67;;;;;;;;;;6246935;28;20041;-82
2021/09/22 13:38:34;;;;;;;;;;;;;;;;;;6246401;28;20469;-83
2021/09/22 13:41:36;;;;;;;4.73;2.57;;;;;;;;;;6247540;28;19944;-83
2021/09/22 13:44:38;;;;;;;;;;;;;;;;;;6248181;28;20045;-82
2021/09/22 13:47:40;;;;;;;3.35;2.25;;;;;;;;;;6220928;28;19922;-83
2021/09/22 13:50:41;;;;;;;3.10;2.30;;;;;;;;;;6247645;28;20115;-82
2021/09/22 13:53:43;;;;;;;2.87;2.03;;;;;;;;;;6246856;28;20103;-83
2021/09/22 13:56:46;;;;;;;2.40;1.88;;;;;;;;;;6241379;28;20052;-81
2021/09/22 13:59:48;;;;;;;3.65;2.15;;;;;;;;;;6245700;28;20045;-83
2021/09/22 14:02:50;;;;;;;3.33;2.00;;;;;;;;;;6246121;28;20499;-83
2021/09/22 14:05:52;;;;;;;3.33;1.90;;;;;;;;;;6246344;28;20042;-83
2021/09/22 14:08:54;;;;;;;3.47;1.73;;;;;;;;;;6242040;28;20049;-83
2021/09/22 14:11:56;;;;;;;2.60;1.67;;;;;;;;;;6245583;28;20067;-82
2021/09/22 14:14:59;;;;;;;4.13;1.90;;;;;;;;;;6239237;28;20053;-83
2021/09/22 14:18:01;;;;;;;2.60;1.90;;;;;;;;;;6241662;28;20045;-82
2021/09/22 14:21:03;;;;;;;;;;;;;;;;;;6241026;28;20048;-82
2021/09/22 14:24:05;;;;;;;3.22;1.50;;;;;;;;;;6236751;28;19925;-82
2021/09/22 14:27:08;;;;;;;2.85;2.10;;;;;;;;;;6235897;28;20045;-82
2021/09/22 14:30:11;;;;;;;2.78;1.95;;;;;;;;;;6238032;28;20418;-82
2021/09/22 14:33:13;;;;;;;3.15;1.95;;;;;;;;;;6269247;28;20064;-82
2021/09/22 14:36:15;;;;;;;3.97;2.28;;;;;;;;;;6239794;28;20252;-81
2021/09/22 14:39:20;;;;;;;4.95;2.35;;;;;;;;;;6236658;28;20497;-80
2021/09/22 14:42:22;;;;;;;4.90;2.65;;;;;;;;;;6234192;28;20060;-81
2021/09/22 14:45:24;;;;;;;;;;;;;;;;;;6266924;28;20071;-81
2021/09/22 14:48:26;;;;;;;5.43;2.60;;;;;;;;;;6233336;28;20282;-81
2021/09/22 14:51:27;;;;;;;4.43;2.65;;;;;;;;;;6239610;28;20072;-80
2021/09/22 14:54:29;;;;;;;4.15;2.83;;;;;;;;;;6235945;28;20411;-82
2021/09/22 14:57:31;;;;;;;4.93;3.00;;;;;;;;;;6236567;28;20117;-81
2021/09/22 15:00:33;;;;;;;4.40;2.88;;;;;;;;;;6236647;28;20072;-80
2021/09/22 15:03:35;;;;;;;5.32;3.20;;;;;;;;;;6234864;28;20469;-81
2021/09/22 15:06:37;;;;;;;5.18;3.15;;;;;;;;;;6235696;28;20046;-82
2021/09/22 15:09:39;;;;;;;4.93;3.47;;;;;;;;;;6227524;28;20045;-81
2021/09/22 15:12:42;;;;;;;5.97;3.33;;;;;;;;;;6230432;28;20566;-82
2021/09/22 15:15:43;;;;;;;4.50;3.42;;;;;;;;;;6227822;28;20133;-82
2021/09/22 15:18:45;;;;;;;6.35;3.38;;;;;;;;;;6222202;28;20038;-82
2021/09/22 15:21:47;;;;;;;3.85;3.30;;;;;;;;;;6235209;28;20183;-82
2021/09/22 15:24:48;;;;;;;5.10;3.30;;;;;;;;;;6224724;28;20517;-82
2021/09/22 15:27:50;;;;;;;4.05;3.10;;;;;;;;;;6233813;28;20109;-81
2021/09/22 15:30:52;;;;;;;5.80;3.22;;;;;;;;;;6233083;28;20041;-82
2021/09/22 15:33:53;;;;;;;6.18;3.50;;;;;;;;;;6232301;28;20056;-81
2021/09/22 15:36:55;;;;;;;6.07;3.30;;;;;;;;;;6224822;28;20068;-80
2021/09/22 15:39:57;;;;;;;4.63;3.40;;;;;;;;;;6240656;28;20048;-80
2021/09/22 15:42:58;;;;;;;6.55;3.38;;;;;;;;;;6237223;28;20129;-81
2021/09/22 15:46:02;;;;;;;5.15;3.55;;;;;;;;;;6238477;28;20050;-80
2021/09/22 15:49:04;;;;;;;5.47;3.22;;;;;;;;;;6240807;28;20048;-81
2021/09/22 15:52:06;;;;;;;6.00;3.83;;;;;;;;;;6240804;28;20715;-81
2021/09/22 15:55:08;;;;;;;5.50;3.50;;;;;;;;;;6232333;28;20128;-81
2021/09/22 15:58:10;;;;;;;6.82;3.60;;;;;;;;;;6232573;28;20081;-82
2021/09/22 16:01:12;;;;;;;6.85;3.80;;;;;;;;;;6224682;28;20053;-81
2021/09/22 16:04:14;;;;;;;6.50;3.63;;;;;;;;;;6233176;28;20069;-81
2021/09/22 16:07:16;;;;;;;5.97;3.63;;;;;;;;;;6250970;28;20041;-80
2021/09/22 16:10:18;;;;;;;6.63;3.70;;;;;;;;;;6227256;28;20806;-79
2021/09/22 16:13:19;;;;;;;4.20;3.58;;;;;;;;;;6234694;28;20048;-81
2021/09/22 16:16:21;;;;;;;4.95;3.65;;;;;;;;;;6241413;28;20127;-80
2021/09/22 16:19:23;;;;;;;9.03;3.60;;;;;;;;;;6242929;28;20064;-81
2021/09/22 16:22:25;;;;;;;5.82;3.58;;;;;;;;;;6245293;28;20077;-80
2021/09/22 16:25:27;;;;;;;6.30;3.55;;;;;;;;;;6243501;28;20073;-80
2021/09/22 16:28:29;;;;;;;5.32;3.97;;;;;;;;;;6242211;28;20042;-80
2021/09/22 16:31:32;;;;;;;4.10;3.20;;;;;;;;;;6240918;28;20041;-81
2021/09/22 16:34:35;;;;;;;8.70;4.03;;;;;;;;;;6242546;28;20088;-82
2021/09/22 16:37:37;;;;;;;6.82;4.10;;;;;;;;;;6242975;28;20168;-80
2021/09/22 16:40:40;;;;;;;7.38;4.20;;;;;;;;;;6277350;28;20041;-82
2021/09/22 16:43:42;;;;;;;;;;;;;;;;;;6246348;28;20045;-82
2021/09/22 16:46:43;;;;;;;5.18;3.60;;;;;;;;;;6242349;28;20382;-82
2021/09/22 16:49:46;;;;;;;6.90;3.58;;;;;;;;;;6219506;28;20517;-82
2021/09/22 16:52:48;;;;;;;;;;;;;;;;;;6226923;28;20041;-81
2021/09/22 16:55:50;;;;;;;5.30;3.42;;;;;;;;;;6223878;28;19956;-81
2021/09/22 16:58:53;;;;;;;5.25;3.70;;;;;;;;;;6238961;28;20050;-82
2021/09/22 17:01:55;;;;;;;5.07;3.47;;;;;;;;;;6220358;28;20065;-82
2021/09/22 17:04:57;;;;;;;5.20;3.70;;;;;;;;;;6241610;28;20207;-80
2021/09/22 17:08:19;;;;;;;5.85;3.95;;;;;;;;;;6239921;28;20499;-81
2021/09/22 17:11:20;;;;;;;4.53;3.30;;;;;;;;;;6237301;28;20084;-81
2021/09/22 17:14:22;;;;;;;4.93;3.55;;;;;;;;;;6241568;28;20063;-80
2021/09/22 17:17:24;;;;;;;5.68;4.05;;;;;;;;;;6240773;28;20482;-81
2021/09/22 17:20:27;;;;;;;25.35;13.52;;;;;;;;;;6242725;28;20064;-81
2021/09/22 17:23:29;;;;;;;18.50;10.70;;;;;;;;;;6241552;28;20041;-81
2021/09/22 17:26:31;;;;;;;10.82;6.25;;;;;;;;;;6241394;28;20084;-80
2021/09/22 17:29:33;;;;;;;7.53;4.80;;;;;;;;;;6240817;28;20046;-79
2021/09/22 17:32:35;;;;;;;5.38;4.10;;;;;;;;;;6239595;28;20440;-81
2021/09/22 17:35:37;;;;;;;5.37;3.87;;;;;;;;;;6241674;28;20052;-80
2021/09/22 17:38:39;;;;;;;8.80;5.32;;;;;;;;;;6238916;28;20050;-80
2021/09/22 17:41:41;;;;;;;4.70;4.15;;;;;;;;;;6229161;28;20518;-79
2021/09/22 17:44:42;;;;;;;8.02;4.13;;;;;;;;;;6240938;28;20376;-81
2021/09/22 17:47:44;;;;;;;5.20;4.00;;;;;;;;;;6211927;28;20717;-81
2021/09/22 17:50:50;;;;;;;5.22;3.97;;;;;;;;;;6237043;28;20069;-81
2021/09/22 17:53:52;;;;;;;7.60;4.20;;;;;;;;;;6240153;28;20077;-81
2021/09/22 17:56:54;;;;;;;6.83;4.17;;;;;;;;;;6238013;28;20244;-81
2021/09/22 17:59:56;;;;;;;10.50;3.58;;;;;;;;;;6240269;28;20502;-80
2021/09/22 18:02:58;;;;;;;6.47;3.67;;;;;;;;;;6240005;28;20065;-82
2021/09/22 18:06:01;;;;;;;4.93;3.80;;;;;;;;;;6243532;28;20079;-83
2021/09/22 18:09:05;;;;;;;5.95;3.55;;;;;;;;;;6241714;28;20050;-81
2021/09/22 18:12:11;;;;;;;5.72;3.70;;;;;;;;;;6232915;28;20523;-83
2021/09/22 18:15:17;;;;;;;5.68;3.40;;;;;;;;;;6232181;28;20109;-82
2021/09/22 18:18:20;;;;;;;11.10;7.85;;;;;;;;;;6236983;28;20049;-81
2021/09/22 18:21:23;;;;;;;7.82;6.60;;;;;;;;;;6239422;28;20510;-82
2021/09/22 18:24:30;;;;;;;8.95;6.20;;;;;;;;;;6239469;28;20045;-82
2021/09/22 18:27:32;;;;;;;6.00;4.45;;;;;;;;;;6239577;28;20049;-81
2021/09/22 18:30:34;;;;;;;10.13;6.82;;;;;;;;;;6235125;28;20056;-81